Time;durP1;ratioP1;P1;durP2;ratioP2;P2;SDS_P1;SDS_P2;PMS_P1;PMS_P2;Temp;Humidity;BMP_temperature;BMP_pressure;BME280_temperature;BME280_humidity;BME280_pressure;Samples;Min_cycle;Max_cycle;Signal;HPM_P1;HPM_P2
2023/01/29 00:02:20;;;;;;;9.15;6.65;;;6.70;96.70;;;;;;4966008;28;20094;-73
2023/01/29 00:04:47;;;;;;;9.70;5.70;;;6.70;96.70;;;;;;4947969;28;20047;-72
2023/01/29 00:07:15;;;;;;;9.45;6.25;;;6.70;96.70;;;;;;4947822;28;20059;-72
2023/01/29 00:09:43;;;;;;;8.43;5.93;;;6.70;96.70;;;;;;4953093;28;20035;-72
2023/01/29 00:12:12;;;;;;;9.25;5.38;;;6.70;96.70;;;;;;4953588;28;20078;-73
2023/01/29 00:14:40;;;;;;;9.48;6.15;;;6.80;96.70;;;;;;4964392;28;20508;-73
2023/01/29 00:17:09;;;;;;;10.18;5.45;;;6.80;96.70;;;;;;4963735;28;20130;-73
2023/01/29 00:19:37;;;;;;;9.60;5.43;;;6.80;96.70;;;;;;4979337;28;20047;-72
2023/01/29 00:22:05;;;;;;;6.60;4.25;;;6.80;96.70;;;;;;4979216;28;20074;-71
2023/01/29 00:24:33;;;;;;;8.02;4.97;;;6.80;96.70;;;;;;4957467;28;20830;-71
2023/01/29 00:27:01;;;;;;;8.68;5.70;;;6.90;96.70;;;;;;4964475;28;20043;-71
2023/01/29 00:29:30;;;;;;;7.13;4.75;;;6.90;96.70;;;;;;4962783;28;20636;-71
2023/01/29 00:31:58;;;;;;;7.93;5.28;;;6.90;96.70;;;;;;4959290;28;20061;-71
2023/01/29 00:34:26;;;;;;;8.13;5.22;;;6.90;96.70;;;;;;4964122;28;20073;-71
2023/01/29 00:37:03;;;;;;;8.50;5.55;;;6.90;96.70;;;;;;4960211;28;20139;-71
2023/01/29 00:39:37;;;;;;;8.05;5.45;;;7.00;96.70;;;;;;4948260;28;20054;-72
2023/01/29 00:45:02;;;;;;;9.52;5.55;;;7.00;96.70;;;;;;4971295;28;20135;-72
2023/01/29 00:47:32;;;;;;;10.18;5.82;;;7.00;96.70;;;;;;4950510;28;20462;-72
2023/01/29 00:50:00;;;;;;;6.63;4.95;;;7.00;96.70;;;;;;4947650;28;20066;-71
2023/01/29 00:52:28;;;;;;;8.45;5.45;;;7.00;96.70;;;;;;4952280;28;20869;-75
2023/01/29 00:54:58;;;;;;;9.48;5.28;;;7.00;96.70;;;;;;4948241;28;20081;-75
2023/01/29 00:57:27;;;;;;;8.75;5.45;;;7.00;96.70;;;;;;4958820;28;20054;-74
2023/01/29 00:59:55;;;;;;;8.23;5.32;;;6.90;96.70;;;;;;4964794;28;20047;-75
2023/01/29 01:05:18;;;;;;;7.47;4.78;;;6.90;96.70;;;;;;4977695;28;20141;-75
2023/01/29 01:07:48;;;;;;;7.57;5.40;;;6.90;96.70;;;;;;4948130;28;20062;-75
2023/01/29 01:10:21;;;;;;;8.68;5.35;;;6.90;96.70;;;;;;4961667;28;20039;-74
2023/01/29 01:12:52;;;;;;;8.60;5.30;;;6.90;96.70;;;;;;4945454;28;20055;-75
2023/01/29 01:15:20;;;;;;;10.15;5.47;;;6.90;96.70;;;;;;4949355;28;20043;-75
2023/01/29 01:17:53;;;;;;;9.20;6.28;;;6.90;96.70;;;;;;4958657;28;20140;-75
2023/01/29 01:20:21;;;;;;;9.77;6.20;;;6.90;96.70;;;;;;4961378;28;20055;-75
2023/01/29 01:22:52;;;;;;;8.48;5.35;;;6.90;96.70;;;;;;4963467;28;20065;-75
2023/01/29 01:25:20;;;;;;;9.38;5.63;;;6.90;96.70;;;;;;4961250;28;20038;-76
2023/01/29 01:27:52;;;;;;;8.63;5.22;;;6.90;96.70;;;;;;4952116;28;20065;-74
2023/01/29 01:30:20;;;;;;;9.98;6.10;;;6.90;96.70;;;;;;4956871;28;20125;-74
2023/01/29 01:32:48;;;;;;;9.07;5.95;;;6.80;96.70;;;;;;4966735;28;20130;-76
2023/01/29 01:35:18;;;;;;;8.40;5.65;;;6.80;96.70;;;;;;4979575;28;20047;-76
2023/01/29 01:37:46;;;;;;;8.52;5.30;;;6.80;96.70;;;;;;4955223;28;20512;-76
2023/01/29 01:40:19;;;;;;;10.20;5.57;;;6.80;96.70;;;;;;4951285;28;20620;-75
2023/01/29 01:42:48;;;;;;;8.73;5.93;;;6.70;96.70;;;;;;4951215;28;20045;-75
2023/01/29 01:45:21;;;;;;;8.85;5.65;;;6.70;96.70;;;;;;4959876;28;20038;-75
2023/01/29 01:47:53;;;;;;;9.63;6.38;;;6.70;96.70;;;;;;4964393;28;20047;-75
2023/01/29 01:50:28;;;;;;;8.95;5.57;;;6.60;96.70;;;;;;4953335;28;20051;-75
2023/01/29 01:53:02;;;;;;;9.90;6.20;;;6.50;96.70;;;;;;4969476;28;20061;-75
2023/01/29 01:55:33;;;;;;;8.18;5.63;;;6.40;96.70;;;;;;4955411;28;20554;-75
2023/01/29 01:58:06;;;;;;;8.32;5.43;;;6.40;96.70;;;;;;4969750;28;20077;-76
2023/01/29 02:00:34;;;;;;;7.60;4.35;;;6.30;96.70;;;;;;4956688;28;20552;-75
2023/01/29 02:11:35;;;;;;;6.43;4.65;;;6.60;96.70;;;;;;4956510;28;20605;-75
2023/01/29 02:14:03;;;;;;;9.30;4.75;;;6.60;96.70;;;;;;4953546;28;20448;-75
2023/01/29 02:16:33;;;;;;;6.95;4.53;;;6.70;96.70;;;;;;4969533;28;20066;-74
2023/01/29 02:19:06;;;;;;;6.28;4.45;;;6.70;96.70;;;;;;4959080;28;20046;-75
2023/01/29 02:21:50;;;;;;;6.82;4.32;;;6.70;96.70;;;;;;4938492;28;20047;-76
2023/01/29 02:24:47;;;;;;;7.07;4.35;;;6.70;96.70;;;;;;4954424;28;20043;-76
2023/01/29 02:27:20;;;;;;;7.25;4.47;;;6.80;96.70;;;;;;4963728;28;20070;-75
2023/01/29 02:30:00;;;;;;;6.82;4.60;;;6.70;96.70;;;;;;4963210;28;20405;-75
2023/01/29 02:32:39;;;;;;;6.40;4.22;;;6.70;96.70;;;;;;4953358;28;20124;-76
2023/01/29 02:35:30;;;;;;;6.95;4.43;;;6.70;96.70;;;;;;4946350;28;20051;-74
2023/01/29 02:38:12;;;;;;;7.38;4.53;;;6.70;96.70;;;;;;4954537;28;20055;-75
2023/01/29 02:40:43;;;;;;;6.82;4.03;;;6.70;96.70;;;;;;4961613;28;20515;-76
2023/01/29 02:43:24;;;;;;;6.88;4.53;;;6.70;96.70;;;;;;4950529;28;20830;-76
2023/01/29 02:46:00;;;;;;;6.53;4.20;;;6.70;96.70;;;;;;4975715;28;20047;-76
2023/01/29 02:48:39;;;;;;;8.70;4.45;;;6.70;96.70;;;;;;4979289;28;20138;-76
2023/01/29 02:51:17;;;;;;;6.30;4.10;;;6.80;96.70;;;;;;4976585;28;20146;-76
2023/01/29 02:53:53;;;;;;;6.18;4.20;;;6.80;96.70;;;;;;4957090;28;20073;-76
2023/01/29 02:56:26;;;;;;;7.20;4.28;;;6.70;96.70;;;;;;4960329;28;20063;-75
2023/01/29 02:59:02;;;;;;;7.80;4.10;;;6.60;96.70;;;;;;4972889;28;20048;-76
2023/01/29 03:01:35;;;;;;;7.22;4.35;;;6.70;96.70;;;;;;4967307;28;20055;-76
2023/01/29 03:04:07;;;;;;;7.65;4.38;;;6.70;96.70;;;;;;4973369;28;20054;-75
2023/01/29 03:06:38;;;;;;;6.28;4.05;;;6.70;96.70;;;;;;4945809;28;20355;-75
2023/01/29 03:09:11;;;;;;;6.38;4.20;;;6.60;96.70;;;;;;4948432;28;20055;-76
2023/01/29 03:11:43;;;;;;;6.07;3.95;;;6.60;96.70;;;;;;4941606;29;20071;-76
2023/01/29 03:14:15;;;;;;;6.63;4.10;;;6.60;96.70;;;;;;4960052;28;20129;-75
2023/01/29 03:16:49;;;;;;;5.63;3.65;;;6.60;96.70;;;;;;4958283;28;20062;-76
2023/01/29 03:19:21;;;;;;;7.07;3.92;;;6.60;96.70;;;;;;4974438;28;20051;-76
2023/01/29 03:21:58;;;;;;;7.07;4.88;;;6.60;96.70;;;;;;4959742;28;20047;-76
2023/01/29 03:33:19;;;;;;;7.35;4.38;;;6.50;96.70;;;;;;4978640;28;20046;-75
2023/01/29 03:35:54;;;;;;;7.65;4.15;;;6.50;96.70;;;;;;4978802;28;20071;-76
2023/01/29 03:38:25;;;;;;;5.50;4.07;;;6.50;96.70;;;;;;4965422;28;20062;-78
2023/01/29 03:40:57;;;;;;;5.85;3.80;;;6.50;96.70;;;;;;4966259;28;20053;-76
2023/01/29 03:43:33;;;;;;;5.75;3.50;;;6.40;96.70;;;;;;4961193;28;20159;-76
2023/01/29 03:46:07;;;;;;;5.95;3.67;;;6.40;96.70;;;;;;4948590;28;20073;-76
2023/01/29 03:48:40;;;;;;;6.03;3.42;;;6.40;96.70;;;;;;4964752;28;20054;-74
2023/01/29 03:51:19;;;;;;;7.03;4.25;;;6.50;96.70;;;;;;4964562;28;20102;-76
2023/01/29 03:53:52;;;;;;;5.72;3.45;;;6.50;96.70;;;;;;4953395;28;20062;-76
2023/01/29 03:56:35;;;;;;;5.82;3.88;;;6.50;96.70;;;;;;4954380;28;20043;-76
2023/01/29 03:59:14;;;;;;;6.75;4.18;;;6.50;96.70;;;;;;4948121;28;20070;-76
2023/01/29 04:02:10;;;;;;;7.80;4.07;;;6.60;96.70;;;;;;4967255;28;20134;-75
2023/01/29 04:04:43;;;;;;;6.47;3.85;;;6.60;96.70;;;;;;4947116;28;20055;-76
2023/01/29 04:07:15;;;;;;;5.55;3.90;;;6.60;96.70;;;;;;4963926;28;20050;-76
2023/01/29 04:09:48;;;;;;;6.15;4.15;;;6.60;96.70;;;;;;4974819;28;20170;-76
2023/01/29 04:12:23;;;;;;;7.00;3.83;;;6.60;96.70;;;;;;4966260;28;20125;-76
2023/01/29 04:14:53;;;;;;;5.95;3.72;;;6.60;96.70;;;;;;4964281;28;20051;-77
2023/01/29 04:17:25;;;;;;;6.00;3.95;;;6.60;96.70;;;;;;4964430;28;20706;-77
2023/01/29 04:20:05;;;;;;;6.93;4.45;;;6.70;96.70;;;;;;4964032;28;20416;-77
2023/01/29 04:22:37;;;;;;;6.80;4.07;;;6.70;96.70;;;;;;4967375;28;20047;-76
2023/01/29 04:25:14;;;;;;;7.32;4.60;;;6.70;96.70;;;;;;4973636;28;20144;-77
2023/01/29 04:27:56;;;;;;;7.75;4.30;;;6.60;96.70;;;;;;4948089;28;20057;-77
2023/01/29 04:30:34;;;;;;;7.15;4.10;;;6.70;96.70;;;;;;4956374;28;20069;-76
2023/01/29 04:33:10;;;;;;;7.65;4.20;;;6.70;96.70;;;;;;4971357;28;20133;-75
2023/01/29 04:35:53;;;;;;;7.90;3.88;;;6.70;96.70;;;;;;4962384;28;20051;-77
2023/01/29 04:38:31;;;;;;;7.22;4.25;;;6.70;96.70;;;;;;4961412;28;20043;-76
2023/01/29 04:41:07;;;;;;;7.90;3.95;;;6.70;96.70;;;;;;4968666;28;20544;-76
2023/01/29 04:43:39;;;;;;;;;;;6.60;96.70;;;;;;4961502;28;20097;-76
2023/01/29 04:46:13;;;;;;;6.07;3.63;;;6.60;96.70;;;;;;4955113;28;19980;-76
2023/01/29 04:48:52;;;;;;;6.20;3.72;;;6.70;96.70;;;;;;4965350;28;20050;-76
2023/01/29 04:51:26;;;;;;;5.82;3.60;;;6.70;96.70;;;;;;4963849;28;20079;-77
2023/01/29 04:53:59;;;;;;;5.88;3.75;;;6.70;96.70;;;;;;4973488;28;20089;-76
2023/01/29 04:56:33;;;;;;;5.53;3.70;;;6.70;96.70;;;;;;4948041;28;20059;-76
2023/01/29 04:59:05;;;;;;;5.63;3.55;;;6.60;96.70;;;;;;4979530;28;20145;-77
2023/01/29 05:01:35;;;;;;;7.05;3.60;;;6.60;96.70;;;;;;4964017;28;20070;-76
2023/01/29 05:04:07;;;;;;;5.78;3.60;;;6.60;96.70;;;;;;4947085;28;20057;-76
2023/01/29 05:06:38;;;;;;;5.35;3.50;;;6.60;96.70;;;;;;4956244;28;20153;-76
2023/01/29 05:09:07;;;;;;;8.57;3.85;;;6.60;96.70;;;;;;4958619;28;20417;-76
2023/01/29 05:11:36;;;;;;;5.75;3.63;;;6.60;96.70;;;;;;4949830;28;20077;-76
2023/01/29 05:14:07;;;;;;;5.85;3.67;;;6.60;96.70;;;;;;4958365;28;20045;-73
2023/01/29 05:16:41;;;;;;;5.10;3.40;;;6.60;96.70;;;;;;4963833;28;20057;-73
2023/01/29 05:19:12;;;;;;;6.22;3.17;;;6.60;96.70;;;;;;4963458;28;20047;-73
2023/01/29 05:21:44;;;;;;;4.60;3.25;;;6.60;96.70;;;;;;4960111;28;20048;-72
2023/01/29 05:24:15;;;;;;;7.15;3.97;;;6.60;96.70;;;;;;4948543;28;20051;-72
2023/01/29 05:29:32;;;;;;;5.97;3.80;;;6.60;96.70;;;;;;4947826;28;20133;-70
2023/01/29 05:32:00;;;;;;;5.07;3.35;;;6.60;96.70;;;;;;4950332;28;20043;-73
2023/01/29 05:34:28;;;;;;;6.22;3.55;;;6.60;96.70;;;;;;4976151;28;20051;-73
2023/01/29 05:36:58;;;;;;;6.20;3.75;;;6.60;96.70;;;;;;4969492;28;20101;-72
2023/01/29 05:39:26;;;;;;;5.90;3.67;;;6.60;96.70;;;;;;4954512;28;20078;-72
2023/01/29 05:41:54;;;;;;;6.97;3.45;;;6.60;96.70;;;;;;4952050;28;21266;-72
2023/01/29 05:44:22;;;;;;;5.57;3.78;;;6.60;96.70;;;;;;4957291;28;20047;-73
2023/01/29 05:46:50;;;;;;;5.90;3.50;;;6.60;96.70;;;;;;4952111;28;20493;-73
2023/01/29 05:49:19;;;;;;;5.97;3.28;;;6.60;96.70;;;;;;4953869;28;20046;-72
2023/01/29 05:51:47;;;;;;;5.88;3.92;;;6.60;96.70;;;;;;4944950;28;20070;-73
2023/01/29 05:54:16;;;;;;;5.80;3.80;;;6.60;96.70;;;;;;4964062;28;20432;-72
2023/01/29 05:56:44;;;;;;;6.18;3.65;;;6.60;96.70;;;;;;4957471;28;20102;-72
2023/01/29 05:59:13;;;;;;;6.45;3.85;;;6.60;96.70;;;;;;4952352;28;20110;-72
2023/01/29 06:01:41;;;;;;;5.75;4.00;;;6.60;96.70;;;;;;4977363;28;20536;-73
2023/01/29 06:04:09;;;;;;;6.60;3.65;;;6.50;96.70;;;;;;4949206;28;20038;-71
2023/01/29 06:06:37;;;;;;;5.57;3.50;;;6.60;96.70;;;;;;4954187;28;20450;-72
2023/01/29 06:09:05;;;;;;;8.27;4.15;;;6.60;96.70;;;;;;4967649;28;20047;-71
2023/01/29 06:11:35;;;;;;;5.35;3.22;;;6.60;96.70;;;;;;4957834;28;20461;-72
2023/01/29 06:14:03;;;;;;;5.47;3.53;;;6.60;96.70;;;;;;4947830;28;20039;-76
2023/01/29 06:16:31;;;;;;;6.43;3.65;;;6.50;96.70;;;;;;4967867;28;20170;-76
2023/01/29 06:18:59;;;;;;;6.20;3.80;;;6.50;96.70;;;;;;4950907;28;20047;-76
2023/01/29 06:21:27;;;;;;;6.72;3.80;;;6.50;96.70;;;;;;4963648;28;20101;-76
2023/01/29 06:23:58;;;;;;;6.22;3.75;;;6.40;96.70;;;;;;4954349;28;20053;-75
2023/01/29 06:26:26;;;;;;;6.05;4.00;;;6.40;96.70;;;;;;4960549;28;20042;-75
2023/01/29 06:28:56;;;;;;;6.13;3.92;;;6.50;96.70;;;;;;4956208;28;20129;-75
2023/01/29 06:31:24;;;;;;;7.43;3.72;;;6.50;96.70;;;;;;4957291;28;20051;-75
2023/01/29 06:34:07;;;;;;;4.75;3.25;;;6.50;96.70;;;;;;4969887;28;20399;-76
2023/01/29 06:36:35;;;;;;;5.25;3.50;;;6.50;96.70;;;;;;4965181;28;20514;-75
2023/01/29 06:39:04;;;;;;;5.43;3.47;;;6.50;96.70;;;;;;4952203;28;20035;-75
2023/01/29 06:41:32;;;;;;;7.18;3.75;;;6.50;96.70;;;;;;4962571;28;20125;-75
2023/01/29 06:44:01;;;;;;;6.50;3.40;;;6.50;96.70;;;;;;4929733;28;20055;-76
2023/01/29 06:46:30;;;;;;;5.30;3.42;;;6.50;96.70;;;;;;4960034;28;20050;-75
2023/01/29 06:48:59;;;;;;;5.30;3.25;;;6.50;96.70;;;;;;4954396;28;20835;-75
2023/01/29 06:51:27;;;;;;;5.82;3.70;;;6.50;96.70;;;;;;4962208;28;20215;-74
2023/01/29 06:53:55;;;;;;;4.00;2.75;;;6.50;96.70;;;;;;4965048;28;20050;-76
2023/01/29 06:56:23;;;;;;;5.28;3.58;;;6.50;96.70;;;;;;4957349;28;20047;-78
2023/01/29 06:58:51;;;;;;;5.78;3.25;;;6.50;96.70;;;;;;4977483;28;20637;-75
2023/01/29 07:01:21;;;;;;;6.30;3.47;;;6.50;96.70;;;;;;4963846;28;20145;-77
2023/01/29 07:04:02;;;;;;;6.30;3.75;;;6.50;96.70;;;;;;4951519;28;20085;-77
2023/01/29 07:06:30;;;;;;;6.30;3.47;;;6.50;96.70;;;;;;4948329;28;20481;-76
2023/01/29 07:08:58;;;;;;;4.68;3.05;;;6.50;96.70;;;;;;4973443;28;20838;-74
2023/01/29 07:11:26;;;;;;;5.30;3.13;;;6.50;96.70;;;;;;4961652;28;20473;-74
2023/01/29 07:13:54;;;;;;;4.82;3.00;;;6.60;96.70;;;;;;4950543;28;20054;-73
2023/01/29 07:16:25;;;;;;;5.15;3.40;;;6.60;96.70;;;;;;4942904;28;20476;-74
2023/01/29 07:18:53;;;;;;;4.75;3.03;;;6.60;96.70;;;;;;4981684;28;20125;-74
2023/01/29 07:21:21;;;;;;;5.70;3.10;;;6.60;96.70;;;;;;4971962;28;20078;-75
2023/01/29 07:23:50;;;;;;;5.20;2.85;;;6.70;96.70;;;;;;4964940;28;20428;-75
2023/01/29 07:26:18;;;;;;;4.70;2.83;;;6.70;96.70;;;;;;4939569;29;20051;-74
2023/01/29 07:28:46;;;;;;;4.25;2.97;;;6.70;96.70;;;;;;4965996;28;20074;-75
2023/01/29 07:31:15;;;;;;;4.75;3.10;;;6.80;96.70;;;;;;4957965;28;20086;-75
2023/01/29 07:33:45;;;;;;;4.97;2.80;;;6.80;96.70;;;;;;4963808;28;20052;-75
2023/01/29 07:36:13;;;;;;;5.32;3.20;;;6.90;96.70;;;;;;4960476;28;20046;-75
2023/01/29 07:38:41;;;;;;;4.43;2.88;;;6.90;96.70;;;;;;4965783;28;20105;-77
2023/01/29 07:41:11;;;;;;;5.57;3.17;;;7.00;96.70;;;;;;4948766;28;20069;-76
2023/01/29 07:43:39;;;;;;;4.53;2.97;;;7.00;96.70;;;;;;4967542;28;20054;-74
2023/01/29 07:46:07;;;;;;;5.10;3.35;;;7.00;96.70;;;;;;4966273;28;20513;-76
2023/01/29 07:48:35;;;;;;;4.25;3.03;;;7.00;96.70;;;;;;4964092;28;20489;-76
2023/01/29 07:51:05;;;;;;;5.78;3.40;;;7.10;96.70;;;;;;4953071;28;20066;-77
2023/01/29 07:53:33;;;;;;;6.63;3.20;;;7.10;96.70;;;;;;4949163;28;20145;-77
2023/01/29 07:56:01;;;;;;;7.65;4.05;;;7.20;96.70;;;;;;4961831;28;20051;-77
2023/01/29 07:58:28;;;;;;;5.70;3.30;;;7.20;96.70;;;;;;4961528;28;20127;-76
2023/01/29 08:00:56;;;;;;;6.20;3.70;;;7.20;96.70;;;;;;4958984;28;20046;-75
2023/01/29 08:03:24;;;;;;;5.15;2.92;;;7.30;96.70;;;;;;4978643;28;20065;-76
2023/01/29 08:05:52;;;;;;;5.70;3.33;;;7.30;96.70;;;;;;4952773;28;20717;-79
2023/01/29 08:08:21;;;;;;;4.70;3.03;;;7.30;96.70;;;;;;4953002;28;20875;-76
2023/01/29 08:10:49;;;;;;;4.53;3.08;;;7.30;96.70;;;;;;4957410;28;20054;-72
2023/01/29 08:13:17;;;;;;;5.80;3.13;;;7.40;96.70;;;;;;4951548;28;20498;-72
2023/01/29 08:15:45;;;;;;;4.88;3.08;;;7.40;96.70;;;;;;4950762;28;20564;-71
2023/01/29 08:18:14;;;;;;;4.57;3.10;;;7.50;96.70;;;;;;4968481;28;20039;-72
2023/01/29 08:20:42;;;;;;;5.63;3.10;;;7.50;96.70;;;;;;4966800;28;20066;-70
2023/01/29 08:23:12;;;;;;;5.15;3.35;;;7.60;96.70;;;;;;4950403;28;20054;-72
2023/01/29 08:25:42;;;;;;;4.72;3.13;;;7.60;96.70;;;;;;4966764;28;20051;-72
2023/01/29 08:28:11;;;;;;;5.00;2.80;;;7.60;96.70;;;;;;4955388;28;20043;-73
2023/01/29 08:30:39;;;;;;;4.43;2.58;;;7.60;96.70;;;;;;4970974;28;20505;-73
2023/01/29 08:33:07;;;;;;;5.07;3.13;;;7.70;96.70;;;;;;4955755;28;20050;-71
2023/01/29 08:35:35;;;;;;;5.13;2.97;;;7.70;96.70;;;;;;4952663;28;20047;-72
2023/01/29 08:38:03;;;;;;;3.83;2.78;;;7.70;96.70;;;;;;4965988;28;20054;-72
2023/01/29 08:40:33;;;;;;;3.88;2.33;;;7.80;96.70;;;;;;4963191;28;20054;-75
2023/01/29 08:43:03;;;;;;;5.15;3.08;;;7.80;96.70;;;;;;4959895;28;20063;-75
2023/01/29 08:45:36;;;;;;;4.65;2.33;;;7.80;96.70;;;;;;4958255;28;20047;-75
2023/01/29 08:48:05;;;;;;;4.35;2.58;;;7.80;96.70;;;;;;4963033;28;20465;-74
2023/01/29 08:50:33;;;;;;;3.95;2.58;;;7.90;96.70;;;;;;4958630;28;20042;-76
2023/01/29 08:53:06;;;;;;;3.80;2.35;;;7.90;96.70;;;;;;4953083;28;20130;-78
2023/01/29 08:55:35;;;;;;;3.97;2.50;;;7.90;96.70;;;;;;4968929;28;20151;-76
2023/01/29 08:58:05;;;;;;;4.43;2.75;;;8.00;96.70;;;;;;4970467;28;20070;-77
2023/01/29 09:00:33;;;;;;;3.80;2.70;;;8.00;96.70;;;;;;4959008;28;20045;-76
2023/01/29 09:03:02;;;;;;;3.50;2.30;;;8.00;96.70;;;;;;4952805;28;20063;-77
2023/01/29 09:05:30;;;;;;;4.15;2.60;;;8.10;96.70;;;;;;4956735;28;20117;-77
2023/01/29 09:07:58;;;;;;;5.55;2.80;;;8.10;96.70;;;;;;4956905;28;20047;-75
2023/01/29 09:10:26;;;;;;;4.00;2.60;;;8.20;96.70;;;;;;4949755;28;20075;-76
2023/01/29 09:12:54;;;;;;;3.97;2.65;;;8.20;96.70;;;;;;4973896;28;20506;-75
2023/01/29 09:15:23;;;;;;;3.67;2.63;;;8.30;96.70;;;;;;4952860;28;20141;-74
2023/01/29 09:17:52;;;;;;;3.55;2.40;;;8.40;96.70;;;;;;4951713;28;20066;-74
2023/01/29 09:20:20;;;;;;;4.82;2.60;;;8.50;96.70;;;;;;4949775;28;20039;-76
2023/01/29 09:22:50;;;;;;;4.20;2.38;;;8.50;96.70;;;;;;4975070;28;20043;-74
2023/01/29 09:25:19;;;;;;;4.45;2.42;;;8.60;96.70;;;;;;4953691;28;20521;-74
2023/01/29 09:27:47;;;;;;;5.57;3.05;;;8.60;96.70;;;;;;4946046;28;20091;-75
2023/01/29 09:30:15;;;;;;;4.80;2.80;;;8.70;96.70;;;;;;4950298;28;20041;-75
2023/01/29 09:32:45;;;;;;;4.38;2.60;;;8.80;96.70;;;;;;4948801;28;20457;-74
2023/01/29 09:35:21;;;;;;;4.93;2.35;;;8.90;96.70;;;;;;4953755;28;20055;-75
2023/01/29 09:37:50;;;;;;;4.97;2.83;;;9.00;96.70;;;;;;4951201;28;20400;-76
2023/01/29 09:40:25;;;;;;;4.35;2.30;;;9.00;96.70;;;;;;4954073;28;20448;-76
2023/01/29 09:43:00;;;;;;;6.13;2.45;;;9.10;96.70;;;;;;4948002;28;20046;-76
2023/01/29 09:45:29;;;;;;;4.43;2.25;;;9.20;96.70;;;;;;4949364;28;20122;-76
2023/01/29 09:48:01;;;;;;;3.03;2.30;;;9.20;96.70;;;;;;4951939;28;20046;-75
2023/01/29 09:50:38;;;;;;;4.60;2.65;;;9.30;96.70;;;;;;4958880;28;20063;-75
2023/01/29 09:53:15;;;;;;;3.35;2.33;;;9.30;96.70;;;;;;4950339;28;20615;-75
2023/01/29 09:55:49;;;;;;;3.53;2.38;;;9.40;96.70;;;;;;4961575;28;20481;-75
2023/01/29 09:58:23;;;;;;;3.72;2.53;;;9.50;96.70;;;;;;4950897;28;20043;-78
2023/01/29 10:00:59;;;;;;;4.05;2.80;;;9.50;96.70;;;;;;4948708;28;20042;-79
2023/01/29 10:03:46;;;;;;;4.63;3.22;;;9.50;96.70;;;;;;4958254;28;20081;-76
2023/01/29 10:06:36;;;;;;;5.32;3.05;;;9.50;96.70;;;;;;4947163;28;20074;-78
2023/01/29 10:09:37;;;;;;;5.00;3.17;;;9.60;96.70;;;;;;4955503;28;20053;-77
2023/01/29 10:12:27;;;;;;;4.15;3.15;;;9.60;96.70;;;;;;4947303;28;20055;-77
2023/01/29 10:15:05;;;;;;;4.97;2.63;;;9.70;96.70;;;;;;4949986;28;20039;-78
2023/01/29 10:17:49;;;;;;;4.50;2.97;;;9.80;96.70;;;;;;4964060;28;20063;-77
2023/01/29 10:20:38;;;;;;;6.55;3.15;;;9.90;96.70;;;;;;4948815;28;20070;-78
2023/01/29 10:23:18;;;;;;;4.35;2.72;;;9.90;96.70;;;;;;4960179;28;20073;-78
2023/01/29 10:25:48;;;;;;;4.45;2.85;;;10.00;96.70;;;;;;4959193;28;20061;-78
2023/01/29 10:28:20;;;;;;;4.32;3.30;;;10.10;96.70;;;;;;4949437;28;20038;-75
2023/01/29 10:30:49;;;;;;;3.63;2.70;;;10.20;96.70;;;;;;4954801;28;20047;-83
2023/01/29 10:33:23;;;;;;;5.65;3.30;;;10.20;96.70;;;;;;4955786;28;20050;-75
2023/01/29 10:35:57;;;;;;;6.85;3.67;;;10.30;96.70;;;;;;4956842;28;20043;-76
2023/01/29 10:38:36;;;;;;;6.47;3.47;;;10.40;96.70;;;;;;4951134;28;20046;-75
2023/01/29 10:41:18;;;;;;;5.78;3.53;;;10.40;96.70;;;;;;4966212;28;20046;-78
2023/01/29 10:43:57;;;;;;;5.05;3.03;;;10.50;96.70;;;;;;4961384;28;20039;-75
2023/01/29 10:46:40;;;;;;;5.10;2.88;;;10.50;96.70;;;;;;4974809;28;20090;-78
2023/01/29 10:49:19;;;;;;;4.07;2.78;;;10.60;96.70;;;;;;4956079;28;20110;-77
2023/01/29 10:52:05;;;;;;;4.05;3.00;;;10.60;96.70;;;;;;4952805;28;20089;-77
2023/01/29 10:54:48;;;;;;;5.18;3.00;;;10.70;96.70;;;;;;4955344;28;20059;-78
2023/01/29 10:57:27;;;;;;;4.15;3.17;;;10.70;96.70;;;;;;4960599;28;20413;-77
2023/01/29 11:00:10;;;;;;;4.28;3.00;;;10.70;96.70;;;;;;4964549;28;20054;-79
2023/01/29 11:02:44;;;;;;;4.53;2.95;;;10.80;96.70;;;;;;4950605;28;20055;-76
2023/01/29 11:05:24;;;;;;;4.57;3.00;;;10.80;96.70;;;;;;4971435;28;20047;-74
2023/01/29 11:08:02;;;;;;;4.95;3.47;;;10.90;96.70;;;;;;4951585;28;20049;-74
2023/01/29 11:10:36;;;;;;;3.85;2.53;;;10.90;96.70;;;;;;4952640;28;20627;-75
2023/01/29 11:13:05;;;;;;;3.47;2.67;;;10.90;96.70;;;;;;4958805;28;20046;-74
2023/01/29 11:15:34;;;;;;;4.18;2.97;;;11.00;96.70;;;;;;4949862;28;20076;-74
2023/01/29 11:18:04;;;;;;;4.68;3.10;;;11.10;96.70;;;;;;4957299;28;20063;-74
2023/01/29 11:20:34;;;;;;;4.25;3.05;;;11.10;96.70;;;;;;4958835;28;20057;-74
2023/01/29 11:23:03;;;;;;;4.75;2.78;;;11.10;96.70;;;;;;4956640;28;20165;-75
2023/01/29 11:25:35;;;;;;;3.97;3.05;;;11.20;96.70;;;;;;4952258;28;20121;-75
2023/01/29 11:28:04;;;;;;;4.65;3.03;;;11.20;96.70;;;;;;4963178;28;20039;-75
2023/01/29 11:30:36;;;;;;;4.93;3.25;;;11.20;96.70;;;;;;4947759;28;20149;-79
2023/01/29 11:33:17;;;;;;;4.97;3.13;;;11.30;96.70;;;;;;4959196;28;20062;-74
2023/01/29 11:35:45;;;;;;;3.47;2.45;;;11.30;96.70;;;;;;4951576;28;20075;-74
2023/01/29 11:38:26;;;;;;;5.97;3.20;;;11.30;96.70;;;;;;4951124;28;20051;-74
2023/01/29 11:41:05;;;;;;;5.03;3.38;;;11.40;96.70;;;;;;4953335;28;20060;-75
2023/01/29 11:43:33;;;;;;;6.30;3.90;;;11.50;96.70;;;;;;4951161;28;20748;-74
2023/01/29 11:46:04;;;;;;;9.27;4.18;;;11.60;96.70;;;;;;4953479;28;20050;-75
2023/01/29 11:48:40;;;;;;;6.28;3.50;;;11.70;96.70;;;;;;4948377;28;20501;-76
2023/01/29 11:51:19;;;;;;;4.88;3.53;;;11.80;96.70;;;;;;4976988;28;20050;-74
2023/01/29 11:53:53;;;;;;;4.15;2.90;;;11.80;96.70;;;;;;4949891;28;20519;-76
2023/01/29 11:56:25;;;;;;;5.20;3.53;;;11.80;96.70;;;;;;4971280;28;20054;-74
2023/01/29 11:58:56;;;;;;;5.95;3.95;;;12.00;96.70;;;;;;4955880;28;20082;-84
2023/01/29 12:01:32;;;;;;;5.57;4.07;;;12.00;96.70;;;;;;4962839;28;20328;-82
2023/01/29 12:04:01;;;;;;;4.22;3.25;;;12.10;96.70;;;;;;4963330;28;20214;-80
2023/01/29 12:06:34;;;;;;;5.47;3.65;;;12.20;96.70;;;;;;4944805;28;20138;-75
2023/01/29 12:09:13;;;;;;;5.57;3.75;;;12.30;96.70;;;;;;4953971;28;20051;-76
2023/01/29 12:11:44;;;;;;;5.80;3.50;;;12.40;96.70;;;;;;4950282;28;20077;-75
2023/01/29 12:14:28;;;;;;;5.32;3.80;;;12.40;96.70;;;;;;4958891;28;20039;-75
2023/01/29 12:17:02;;;;;;;4.38;3.35;;;12.40;96.70;;;;;;4972525;28;20057;-74
2023/01/29 12:19:37;;;;;;;5.15;3.45;;;12.50;96.70;;;;;;4960023;28;20059;-74
2023/01/29 12:22:10;;;;;;;7.25;4.10;;;12.60;96.70;;;;;;4953232;28;20946;-74
2023/01/29 12:24:48;;;;;;;4.93;3.42;;;12.80;96.70;;;;;;4950472;28;20076;-74
2023/01/29 12:27:24;;;;;;;4.28;3.53;;;12.80;96.70;;;;;;4974830;28;20043;-74
2023/01/29 12:30:00;;;;;;;4.57;3.30;;;12.80;96.70;;;;;;4960506;28;20105;-74
2023/01/29 12:32:37;;;;;;;6.43;4.40;;;12.80;96.70;;;;;;4953363;28;20125;-75
2023/01/29 12:35:14;;;;;;;5.07;3.70;;;12.80;96.70;;;;;;4951113;28;20043;-74
2023/01/29 12:37:51;;;;;;;5.63;4.05;;;12.80;96.70;;;;;;4965459;28;20504;-75
2023/01/29 12:40:26;;;;;;;4.22;3.40;;;12.80;96.70;;;;;;4971928;28;20037;-75
2023/01/29 12:43:04;;;;;;;6.07;4.03;;;13.00;96.70;;;;;;4971855;28;20062;-76
2023/01/29 12:45:35;;;;;;;7.55;4.15;;;12.90;96.70;;;;;;4949401;28;20077;-74
2023/01/29 12:48:07;;;;;;;5.65;3.95;;;13.10;96.70;;;;;;4961280;28;20075;-75
2023/01/29 12:50:37;;;;;;;6.82;4.80;;;13.20;96.70;;;;;;4951424;28;20842;-75
2023/01/29 12:53:14;;;;;;;5.93;4.45;;;13.30;96.70;;;;;;4957768;28;20045;-74
2023/01/29 12:55:48;;;;;;;4.50;3.60;;;13.30;96.70;;;;;;4952973;28;20498;-74
2023/01/29 12:58:22;;;;;;;5.45;3.88;;;13.40;96.70;;;;;;4954780;28;20058;-76
2023/01/29 13:00:56;;;;;;;4.07;3.42;;;13.30;96.70;;;;;;4964047;28;20600;-77
2023/01/29 13:03:28;;;;;;;5.30;3.88;;;13.30;96.70;;;;;;4957019;28;20043;-78
2023/01/29 13:06:01;;;;;;;5.25;3.10;;;13.40;96.70;;;;;;4962436;28;20050;-76
2023/01/29 13:08:34;;;;;;;5.13;3.47;;;13.50;96.70;;;;;;4965579;28;20054;-77
2023/01/29 13:11:11;;;;;;;4.10;3.40;;;13.50;96.70;;;;;;4959657;28;20074;-80
2023/01/29 13:13:51;;;;;;;4.15;3.00;;;13.70;96.70;;;;;;4956202;28;20043;-75
2023/01/29 13:16:24;;;;;;;9.55;5.10;;;13.70;96.70;;;;;;4960812;28;20055;-75
2023/01/29 13:18:56;;;;;;;6.93;3.42;;;13.50;96.70;;;;;;4953789;28;20421;-74
2023/01/29 13:21:29;;;;;;;4.97;3.53;;;13.30;96.70;;;;;;4954222;28;20118;-74
2023/01/29 13:24:02;;;;;;;6.45;3.58;;;13.10;96.70;;;;;;4955954;28;20054;-76
2023/01/29 13:26:33;;;;;;;5.68;4.47;;;13.40;96.70;;;;;;4961442;28;20082;-77
2023/01/29 13:29:04;;;;;;;4.45;3.70;;;13.50;96.70;;;;;;4933527;28;20059;-77
2023/01/29 13:31:35;;;;;;;5.50;3.72;;;13.50;96.70;;;;;;4958848;28;20079;-80
2023/01/29 13:34:14;;;;;;;4.43;3.47;;;13.40;96.70;;;;;;4954726;28;20043;-75
2023/01/29 13:36:44;;;;;;;4.38;3.55;;;13.30;96.70;;;;;;4954307;28;20047;-76
2023/01/29 13:39:22;;;;;;;5.75;3.58;;;13.30;96.70;;;;;;4950707;28;20047;-76
2023/01/29 13:41:54;;;;;;;7.20;4.28;;;13.20;96.70;;;;;;4951657;28;20054;-74
2023/01/29 13:44:26;;;;;;;8.70;5.78;;;12.90;96.70;;;;;;4946146;28;20047;-73
2023/01/29 13:46:56;;;;;;;5.35;4.40;;;12.90;96.70;;;;;;4944983;28;20048;-74
2023/01/29 13:49:35;;;;;;;5.88;4.57;;;13.10;96.70;;;;;;4957023;28;20105;-75